EZY61JB EGKK-LFMT
Flight info
| Callsign | EZY61JB |
|---|---|
| Flight time | 1h 20m |
| Altitude | 33000 |
| Route | SFD Y47 BENBO UL612 VEULE DCT DEKOD DCT DISAK DCT DIRMO DCT ETAMO DCT ADEKA DCT MOKDI DCT MEN |
| Aircraft | A320/M-SDE2E3FGHIRWXY/LB1 |
Departure
| Time | 2026-05-08 11:35 |
|---|---|
| Airport | London Gatwick Airport (EGKK) |
Arrival
| Time | 2026-05-08 12:55 |
|---|---|
| Airport | Montpellier-Méditerranée Airport (LFMT) |
| Time | Latitude | Longitude | Altitude | Speed | Heading |
|---|---|---|---|---|---|
| 2026-05-08 11:06 | 51.15930 | -0.17159 | 232 ft | 0 kts | 317° |
| 2026-05-08 11:17 | 51.15928 | -0.17155 | 205 ft | 3 kts | 317° |
| 2026-05-08 11:17 | 51.15909 | -0.17126 | 217 ft | 4 kts | 317° |
| 2026-05-08 11:17 | 51.15893 | -0.17103 | 217 ft | 4 kts | 303° |
| 2026-05-08 11:18 | 51.15889 | -0.17073 | 215 ft | 4 kts | 228° |
| 2026-05-08 11:18 | 51.15907 | -0.17052 | 217 ft | 4 kts | 213° |
| 2026-05-08 11:18 | 51.15928 | -0.17026 | 211 ft | 4 kts | 223° |
| 2026-05-08 11:18 | 51.15947 | -0.16995 | 217 ft | 4 kts | 233° |
| 2026-05-08 11:19 | 51.15961 | -0.16960 | 211 ft | 4 kts | 244° |
| 2026-05-08 11:19 | 51.15971 | -0.16921 | 215 ft | 4 kts | 255° |
| 2026-05-08 11:19 | 51.15975 | -0.16899 | 217 ft | 0 kts | 259° |
| 2026-05-08 11:23 | 51.15975 | -0.16900 | 217 ft | 1 kts | 258° |
| 2026-05-08 11:23 | 51.15973 | -0.16911 | 214 ft | 0 kts | 259° |
| 2026-05-08 11:23 | 51.15973 | -0.16917 | 205 ft | 1 kts | 259° |
| 2026-05-08 11:23 | 51.15969 | -0.16941 | 210 ft | 5 kts | 255° |
| 2026-05-08 11:24 | 51.15942 | -0.17004 | 208 ft | 9 kts | 228° |
| 2026-05-08 11:24 | 51.15887 | -0.17069 | 208 ft | 9 kts | 203° |
| 2026-05-08 11:24 | 51.15826 | -0.17103 | 210 ft | 11 kts | 220° |
| 2026-05-08 11:24 | 51.15800 | -0.17234 | 208 ft | 14 kts | 256° |
| 2026-05-08 11:25 | 51.15778 | -0.17393 | 205 ft | 15 kts | 258° |
| 2026-05-08 11:25 | 51.15757 | -0.17550 | 209 ft | 14 kts | 257° |
| 2026-05-08 11:25 | 51.15736 | -0.17699 | 205 ft | 14 kts | 257° |
| 2026-05-08 11:25 | 51.15714 | -0.17856 | 208 ft | 15 kts | 257° |
| 2026-05-08 11:26 | 51.15691 | -0.18028 | 213 ft | 17 kts | 257° |
| 2026-05-08 11:26 | 51.15664 | -0.18219 | 209 ft | 18 kts | 258° |
| 2026-05-08 11:26 | 51.15640 | -0.18400 | 205 ft | 16 kts | 257° |
| 2026-05-08 11:26 | 51.15617 | -0.18562 | 209 ft | 14 kts | 257° |
| 2026-05-08 11:27 | 51.15598 | -0.18706 | 207 ft | 13 kts | 257° |
| 2026-05-08 11:27 | 51.15567 | -0.18821 | 208 ft | 11 kts | 211° |
| 2026-05-08 11:27 | 51.15487 | -0.18810 | 207 ft | 13 kts | 168° |
| 2026-05-08 11:27 | 51.15392 | -0.18776 | 215 ft | 15 kts | 168° |
| 2026-05-08 11:28 | 51.15280 | -0.18739 | 205 ft | 17 kts | 167° |
| 2026-05-08 11:28 | 51.15171 | -0.18701 | 210 ft | 13 kts | 167° |
| 2026-05-08 11:28 | 51.15124 | -0.18783 | 209 ft | 12 kts | 262° |
| 2026-05-08 11:28 | 51.15104 | -0.18930 | 205 ft | 16 kts | 258° |
| 2026-05-08 11:29 | 51.15077 | -0.19128 | 205 ft | 21 kts | 256° |
| 2026-05-08 11:29 | 51.15028 | -0.19270 | 212 ft | 14 kts | 187° |
| 2026-05-08 11:29 | 51.14958 | -0.19319 | 208 ft | 14 kts | 254° |
| 2026-05-08 11:29 | 51.14935 | -0.19495 | 210 ft | 18 kts | 257° |
| 2026-05-08 11:30 | 51.14904 | -0.19708 | 207 ft | 21 kts | 258° |
| 2026-05-08 11:30 | 51.14872 | -0.19946 | 214 ft | 23 kts | 257° |
| 2026-05-08 11:30 | 51.14838 | -0.20193 | 213 ft | 18 kts | 258° |
| 2026-05-08 11:30 | 51.14818 | -0.20336 | 207 ft | 12 kts | 257° |
| 2026-05-08 11:31 | 51.14799 | -0.20471 | 211 ft | 14 kts | 257° |
| 2026-05-08 11:31 | 51.14775 | -0.20646 | 204 ft | 19 kts | 258° |
| 2026-05-08 11:31 | 51.14746 | -0.20866 | 208 ft | 18 kts | 257° |
| 2026-05-08 11:31 | 51.14741 | -0.20897 | 205 ft | 0 kts | 257° |
| 2026-05-08 11:32 | 51.14738 | -0.20922 | 210 ft | 6 kts | 257° |
| 2026-05-08 11:32 | 51.14729 | -0.20985 | 209 ft | 6 kts | 258° |
| 2026-05-08 11:32 | 51.14719 | -0.21061 | 207 ft | 8 kts | 257° |
| 2026-05-08 11:32 | 51.14703 | -0.21170 | 205 ft | 12 kts | 257° |
| 2026-05-08 11:33 | 51.14686 | -0.21293 | 210 ft | 8 kts | 257° |
| 2026-05-08 11:33 | 51.14652 | -0.21337 | 205 ft | 6 kts | 191° |
| 2026-05-08 11:33 | 51.14615 | -0.21330 | 209 ft | 3 kts | 167° |
| 2026-05-08 11:33 | 51.14569 | -0.21308 | 207 ft | 12 kts | 158° |
| 2026-05-08 11:34 | 51.14521 | -0.21221 | 215 ft | 11 kts | 105° |
| 2026-05-08 11:34 | 51.14534 | -0.21068 | 207 ft | 25 kts | 78° |
| 2026-05-08 11:34 | 51.14626 | -0.20404 | 218 ft | 94 kts | 77° |
| 2026-05-08 11:34 | 51.14806 | -0.19089 | 209 ft | 147 kts | 78° |
| 2026-05-08 11:35 | 51.15070 | -0.17325 | 475 ft | 168 kts | 78° |
| 2026-05-08 11:35 | 51.15348 | -0.15502 | 1169 ft | 171 kts | 80° |
| 2026-05-08 11:35 | 51.15605 | -0.13623 | 1814 ft | 181 kts | 82° |
| 2026-05-08 11:35 | 51.15874 | -0.11523 | 2163 ft | 206 kts | 82° |
| 2026-05-08 11:36 | 51.16162 | -0.09157 | 2613 ft | 223 kts | 84° |
| 2026-05-08 11:36 | 51.15995 | -0.06761 | 3470 ft | 219 kts | 120° |
| 2026-05-08 11:36 | 51.14897 | -0.05023 | 3981 ft | 237 kts | 153° |
| 2026-05-08 11:36 | 51.13284 | -0.04153 | 4592 ft | 251 kts | 168° |
| 2026-05-08 11:37 | 51.11551 | -0.03659 | 5444 ft | 255 kts | 172° |
| 2026-05-08 11:37 | 51.09769 | -0.03245 | 5849 ft | 259 kts | 172° |
| 2026-05-08 11:37 | 51.08000 | -0.02700 | 5962 ft | 259 kts | 168° |
| 2026-05-08 11:37 | 51.06256 | -0.02004 | 5980 ft | 259 kts | 166° |
| 2026-05-08 11:38 | 51.04514 | -0.01223 | 5980 ft | 260 kts | 165° |
| 2026-05-08 11:38 | 51.02777 | -0.00404 | 5985 ft | 262 kts | 164° |
| 2026-05-08 11:38 | 51.01024 | 0.00435 | 5981 ft | 263 kts | 165° |
| 2026-05-08 11:38 | 50.99276 | 0.01269 | 5988 ft | 262 kts | 165° |
| 2026-05-08 11:39 | 50.97536 | 0.02097 | 5984 ft | 261 kts | 165° |
| 2026-05-08 11:39 | 50.95795 | 0.02925 | 5981 ft | 261 kts | 165° |
| 2026-05-08 11:39 | 50.94054 | 0.03749 | 5983 ft | 261 kts | 165° |
| 2026-05-08 11:39 | 50.92310 | 0.04570 | 5985 ft | 262 kts | 164° |
| 2026-05-08 11:40 | 50.90580 | 0.05388 | 5996 ft | 262 kts | 165° |
| 2026-05-08 11:40 | 50.88834 | 0.06210 | 6000 ft | 263 kts | 165° |
| 2026-05-08 11:40 | 50.87075 | 0.07038 | 6002 ft | 264 kts | 165° |
| 2026-05-08 11:40 | 50.85308 | 0.07867 | 5998 ft | 265 kts | 166° |
| 2026-05-08 11:41 | 50.83550 | 0.08692 | 6000 ft | 263 kts | 166° |
| 2026-05-08 11:41 | 50.81796 | 0.09513 | 5993 ft | 262 kts | 166° |
| 2026-05-08 11:41 | 50.80045 | 0.10332 | 5990 ft | 265 kts | 165° |
| 2026-05-08 11:41 | 50.78272 | 0.11159 | 5996 ft | 265 kts | 165° |
| 2026-05-08 11:42 | 50.76479 | 0.11792 | 5997 ft | 262 kts | 176° |
| 2026-05-08 11:42 | 50.74665 | 0.11681 | 6037 ft | 265 kts | 192° |
| 2026-05-08 11:42 | 50.72858 | 0.11004 | 6872 ft | 266 kts | 195° |
| 2026-05-08 11:42 | 50.71059 | 0.10342 | 7792 ft | 267 kts | 194° |
| 2026-05-08 11:43 | 50.69229 | 0.09683 | 8661 ft | 269 kts | 194° |
| 2026-05-08 11:43 | 50.67398 | 0.09025 | 9505 ft | 273 kts | 194° |
| 2026-05-08 11:43 | 50.65522 | 0.08352 | 10268 ft | 278 kts | 194° |
| 2026-05-08 11:43 | 50.63587 | 0.07658 | 10675 ft | 296 kts | 193° |
| 2026-05-08 11:44 | 50.61505 | 0.06908 | 10988 ft | 315 kts | 193° |
| 2026-05-08 11:44 | 50.60082 | 0.06395 | 11398 ft | 319 kts | 193° |
| 2026-05-08 11:44 | 50.57891 | 0.05608 | 12100 ft | 324 kts | 193° |
| 2026-05-08 11:44 | 50.55685 | 0.04817 | 12832 ft | 328 kts | 193° |
| 2026-05-08 11:45 | 50.52675 | 0.03734 | 13757 ft | 334 kts | 194° |
| 2026-05-08 11:45 | 50.51164 | 0.03190 | 14162 ft | 338 kts | 193° |
| 2026-05-08 11:45 | 50.48861 | 0.02390 | 14792 ft | 341 kts | 190° |
| 2026-05-08 11:45 | 50.46482 | 0.02174 | 15423 ft | 345 kts | 177° |
| 2026-05-08 11:46 | 50.44113 | 0.02848 | 16099 ft | 349 kts | 164° |
| 2026-05-08 11:46 | 50.41880 | 0.04383 | 16726 ft | 354 kts | 150° |
| 2026-05-08 11:46 | 50.39809 | 0.06509 | 17343 ft | 357 kts | 147° |
| 2026-05-08 11:46 | 50.37731 | 0.08674 | 17980 ft | 360 kts | 148° |
| 2026-05-08 11:47 | 50.35633 | 0.10849 | 18570 ft | 363 kts | 148° |
| 2026-05-08 11:47 | 50.33512 | 0.13041 | 19058 ft | 368 kts | 148° |
| 2026-05-08 11:47 | 50.31362 | 0.15255 | 19532 ft | 372 kts | 148° |
| 2026-05-08 11:47 | 50.29183 | 0.17493 | 20010 ft | 377 kts | 148° |
| 2026-05-08 11:48 | 50.26976 | 0.19757 | 20473 ft | 382 kts | 148° |
| 2026-05-08 11:48 | 50.24744 | 0.22048 | 20972 ft | 386 kts | 148° |
| 2026-05-08 11:48 | 50.22488 | 0.24366 | 21458 ft | 390 kts | 148° |
| 2026-05-08 11:48 | 50.20211 | 0.26706 | 21952 ft | 394 kts | 148° |
| 2026-05-08 11:49 | 50.17907 | 0.29071 | 22401 ft | 399 kts | 148° |
| 2026-05-08 11:49 | 50.15572 | 0.31471 | 22837 ft | 404 kts | 147° |
| 2026-05-08 11:49 | 50.13209 | 0.33900 | 23296 ft | 409 kts | 148° |
| 2026-05-08 11:49 | 50.10825 | 0.36345 | 23741 ft | 413 kts | 148° |
| 2026-05-08 11:50 | 50.08411 | 0.38821 | 24107 ft | 418 kts | 147° |
| 2026-05-08 11:50 | 50.05974 | 0.41322 | 24482 ft | 422 kts | 147° |
| 2026-05-08 11:50 | 50.03515 | 0.43843 | 24853 ft | 425 kts | 147° |
| 2026-05-08 11:50 | 50.01034 | 0.46380 | 25248 ft | 428 kts | 147° |
| 2026-05-08 11:51 | 49.98551 | 0.48918 | 25725 ft | 427 kts | 147° |
| 2026-05-08 11:51 | 49.96057 | 0.51463 | 26062 ft | 431 kts | 147° |
| 2026-05-08 11:51 | 49.93529 | 0.54034 | 26316 ft | 437 kts | 148° |
| 2026-05-08 11:51 | 49.90970 | 0.56627 | 26620 ft | 441 kts | 148° |
| 2026-05-08 11:52 | 49.88387 | 0.59239 | 26932 ft | 445 kts | 148° |
| 2026-05-08 11:52 | 49.85782 | 0.61873 | 27240 ft | 449 kts | 148° |
| 2026-05-08 11:52 | 49.83148 | 0.64504 | 27551 ft | 452 kts | 148° |
| 2026-05-08 11:52 | 49.80485 | 0.67116 | 27855 ft | 456 kts | 148° |
| 2026-05-08 11:53 | 49.77787 | 0.69730 | 28171 ft | 459 kts | 149° |
| 2026-05-08 11:53 | 49.75064 | 0.72355 | 28458 ft | 463 kts | 149° |
| 2026-05-08 11:53 | 49.72321 | 0.75001 | 28720 ft | 467 kts | 149° |
| 2026-05-08 11:53 | 49.69557 | 0.77670 | 29012 ft | 470 kts | 149° |
| 2026-05-08 11:54 | 49.66776 | 0.80359 | 29294 ft | 473 kts | 149° |
| 2026-05-08 11:54 | 49.63977 | 0.83065 | 29577 ft | 476 kts | 149° |
| 2026-05-08 11:54 | 49.61161 | 0.85786 | 29855 ft | 479 kts | 149° |
| 2026-05-08 11:54 | 49.58325 | 0.88528 | 30124 ft | 482 kts | 149° |
| 2026-05-08 11:55 | 49.55514 | 0.91244 | 30383 ft | 485 kts | 149° |
| 2026-05-08 11:55 | 49.52648 | 0.94004 | 30628 ft | 487 kts | 149° |
| 2026-05-08 11:55 | 49.49769 | 0.96774 | 30839 ft | 489 kts | 149° |
| 2026-05-08 11:55 | 49.46841 | 0.99583 | 31081 ft | 491 kts | 149° |
| 2026-05-08 11:56 | 49.43937 | 1.02363 | 31350 ft | 492 kts | 149° |
| 2026-05-08 11:56 | 49.41034 | 1.05136 | 31698 ft | 491 kts | 149° |
| 2026-05-08 11:56 | 49.38178 | 1.07862 | 32047 ft | 490 kts | 150° |
| 2026-05-08 11:56 | 49.35286 | 1.10615 | 32380 ft | 489 kts | 150° |
| 2026-05-08 11:57 | 49.32399 | 1.13356 | 32733 ft | 488 kts | 150° |
| 2026-05-08 11:57 | 49.29515 | 1.16090 | 32994 ft | 487 kts | 150° |
| 2026-05-08 11:57 | 49.26644 | 1.18816 | 33075 ft | 481 kts | 150° |
| 2026-05-08 11:58 | 49.21064 | 1.24119 | 33076 ft | 468 kts | 150° |
| 2026-05-08 11:58 | 49.15550 | 1.29349 | 33071 ft | 466 kts | 150° |
| 2026-05-08 11:59 | 49.07299 | 1.37133 | 33059 ft | 463 kts | 151° |
| 2026-05-08 11:59 | 49.01809 | 1.42290 | 33069 ft | 465 kts | 151° |
| 2026-05-08 12:00 | 48.96297 | 1.47437 | 33070 ft | 465 kts | 151° |
| 2026-05-08 12:00 | 48.90784 | 1.52578 | 33065 ft | 465 kts | 151° |
| 2026-05-08 12:01 | 48.85274 | 1.57724 | 33067 ft | 465 kts | 151° |
| 2026-05-08 12:01 | 48.79757 | 1.62851 | 33061 ft | 465 kts | 151° |
| 2026-05-08 12:02 | 48.74237 | 1.67963 | 33053 ft | 465 kts | 151° |
| 2026-05-08 12:02 | 48.68699 | 1.73072 | 33040 ft | 467 kts | 151° |
| 2026-05-08 12:03 | 48.63161 | 1.78182 | 33044 ft | 467 kts | 152° |
| 2026-05-08 12:03 | 48.57619 | 1.83287 | 33043 ft | 466 kts | 152° |
| 2026-05-08 12:04 | 48.52074 | 1.88374 | 33040 ft | 466 kts | 152° |
| 2026-05-08 12:04 | 48.46559 | 1.93408 | 33043 ft | 466 kts | 152° |
| 2026-05-08 12:05 | 48.41007 | 1.98474 | 33005 ft | 467 kts | 152° |
| 2026-05-08 12:05 | 48.35453 | 2.03535 | 33008 ft | 467 kts | 152° |
| 2026-05-08 12:06 | 48.29825 | 2.08370 | 33028 ft | 463 kts | 160° |
| 2026-05-08 12:06 | 48.23724 | 2.10980 | 33022 ft | 452 kts | 177° |
| 2026-05-08 12:07 | 48.17486 | 2.12276 | 33018 ft | 453 kts | 177° |
| 2026-05-08 12:07 | 48.11239 | 2.13294 | 33050 ft | 449 kts | 183° |
| 2026-05-08 12:08 | 48.05003 | 2.13668 | 33051 ft | 448 kts | 183° |
| 2026-05-08 12:08 | 47.98773 | 2.14027 | 33032 ft | 448 kts | 183° |
| 2026-05-08 12:09 | 47.92555 | 2.14388 | 33037 ft | 448 kts | 183° |
| 2026-05-08 12:09 | 47.86330 | 2.14758 | 33039 ft | 448 kts | 183° |
| 2026-05-08 12:10 | 47.80106 | 2.15123 | 33007 ft | 447 kts | 183° |
| 2026-05-08 12:10 | 47.73886 | 2.15489 | 32983 ft | 447 kts | 183° |
| 2026-05-08 12:11 | 47.67668 | 2.15852 | 32988 ft | 447 kts | 183° |
| 2026-05-08 12:11 | 47.61447 | 2.16214 | 32991 ft | 447 kts | 183° |
| 2026-05-08 12:12 | 47.55229 | 2.16568 | 32981 ft | 447 kts | 183° |
| 2026-05-08 12:12 | 47.49012 | 2.16917 | 32988 ft | 447 kts | 183° |
| 2026-05-08 12:13 | 47.42794 | 2.17280 | 32992 ft | 447 kts | 183° |
| 2026-05-08 12:13 | 47.36584 | 2.17643 | 32996 ft | 447 kts | 183° |
| 2026-05-08 12:14 | 47.30369 | 2.17998 | 32983 ft | 447 kts | 183° |
| 2026-05-08 12:14 | 47.24160 | 2.18357 | 32992 ft | 446 kts | 183° |
| 2026-05-08 12:15 | 47.17953 | 2.18712 | 32996 ft | 446 kts | 183° |
| 2026-05-08 12:15 | 47.11752 | 2.19076 | 32986 ft | 447 kts | 180° |
| 2026-05-08 12:16 | 47.05653 | 2.21127 | 32998 ft | 456 kts | 162° |
| 2026-05-08 12:16 | 46.99800 | 2.24579 | 33003 ft | 456 kts | 162° |
| 2026-05-08 12:17 | 46.93904 | 2.28012 | 32975 ft | 456 kts | 162° |
| 2026-05-08 12:17 | 46.88014 | 2.31429 | 32988 ft | 455 kts | 162° |
| 2026-05-08 12:18 | 46.82286 | 2.35394 | 32991 ft | 460 kts | 149° |
| 2026-05-08 12:18 | 46.76947 | 2.40528 | 32991 ft | 460 kts | 150° |
| 2026-05-08 12:19 | 46.71588 | 2.45620 | 32994 ft | 460 kts | 150° |
| 2026-05-08 12:19 | 46.66220 | 2.50713 | 32976 ft | 461 kts | 150° |
| 2026-05-08 12:20 | 46.60844 | 2.55811 | 32978 ft | 461 kts | 150° |
| 2026-05-08 12:20 | 46.55460 | 2.60901 | 32976 ft | 462 kts | 150° |
| 2026-05-08 12:21 | 46.50075 | 2.65985 | 32965 ft | 461 kts | 150° |
| 2026-05-08 12:21 | 46.44694 | 2.71047 | 32974 ft | 461 kts | 150° |
| 2026-05-08 12:22 | 46.39310 | 2.76091 | 32981 ft | 460 kts | 150° |
| 2026-05-08 12:22 | 46.33933 | 2.81123 | 32993 ft | 460 kts | 150° |
| 2026-05-08 12:23 | 46.28551 | 2.86155 | 32970 ft | 461 kts | 150° |
| 2026-05-08 12:23 | 46.23167 | 2.91187 | 32976 ft | 461 kts | 150° |
| 2026-05-08 12:24 | 46.17777 | 2.96201 | 32975 ft | 461 kts | 150° |
| 2026-05-08 12:24 | 46.12385 | 3.01183 | 32949 ft | 461 kts | 150° |
| 2026-05-08 12:25 | 46.06995 | 3.06164 | 32973 ft | 460 kts | 150° |
| 2026-05-08 12:25 | 46.01614 | 3.11137 | 32984 ft | 459 kts | 150° |
| 2026-05-08 12:26 | 45.96146 | 3.15682 | 32989 ft | 453 kts | 162° |
| 2026-05-08 12:26 | 45.90130 | 3.17828 | 32973 ft | 441 kts | 181° |
| 2026-05-08 12:27 | 45.84036 | 3.17848 | 32977 ft | 438 kts | 186° |
| 2026-05-08 12:27 | 45.77941 | 3.17768 | 32981 ft | 438 kts | 186° |
| 2026-05-08 12:28 | 45.71841 | 3.17700 | 32963 ft | 438 kts | 186° |
| 2026-05-08 12:28 | 45.65749 | 3.17623 | 32969 ft | 437 kts | 186° |
| 2026-05-08 12:29 | 45.59672 | 3.17548 | 32973 ft | 437 kts | 186° |
| 2026-05-08 12:29 | 45.53599 | 3.17473 | 32976 ft | 436 kts | 186° |
| 2026-05-08 12:30 | 45.47536 | 3.17387 | 32971 ft | 435 kts | 186° |
| 2026-05-08 12:30 | 45.42503 | 3.17309 | 32974 ft | 435 kts | 186° |
| 2026-05-08 12:31 | 45.36450 | 3.17225 | 32974 ft | 435 kts | 186° |
| 2026-05-08 12:31 | 45.30401 | 3.17154 | 32978 ft | 434 kts | 186° |
| 2026-05-08 12:32 | 45.24366 | 3.17081 | 32987 ft | 433 kts | 186° |
| 2026-05-08 12:32 | 45.18340 | 3.16995 | 32992 ft | 432 kts | 186° |
| 2026-05-08 12:33 | 45.12331 | 3.16910 | 32976 ft | 431 kts | 186° |
| 2026-05-08 12:33 | 45.09346 | 3.16874 | 32756 ft | 425 kts | 186° |
| 2026-05-08 12:33 | 45.06418 | 3.16846 | 32494 ft | 417 kts | 186° |
| 2026-05-08 12:34 | 45.03532 | 3.16817 | 32225 ft | 413 kts | 186° |
| 2026-05-08 12:34 | 45.00677 | 3.16782 | 31796 ft | 409 kts | 186° |
| 2026-05-08 12:34 | 44.97839 | 3.16742 | 31309 ft | 407 kts | 186° |
| 2026-05-08 12:34 | 44.95017 | 3.16700 | 30823 ft | 405 kts | 186° |
| 2026-05-08 12:35 | 44.92209 | 3.16660 | 30358 ft | 402 kts | 185° |
| 2026-05-08 12:35 | 44.89416 | 3.16622 | 29868 ft | 400 kts | 185° |
| 2026-05-08 12:35 | 44.86638 | 3.16584 | 29388 ft | 398 kts | 185° |
| 2026-05-08 12:35 | 44.83886 | 3.16550 | 28946 ft | 394 kts | 185° |
| 2026-05-08 12:36 | 44.81157 | 3.16515 | 28505 ft | 390 kts | 185° |
| 2026-05-08 12:36 | 44.78451 | 3.16479 | 28065 ft | 387 kts | 185° |
| 2026-05-08 12:36 | 44.75766 | 3.16443 | 27638 ft | 384 kts | 185° |
| 2026-05-08 12:36 | 44.73103 | 3.16407 | 27186 ft | 382 kts | 184° |
| 2026-05-08 12:37 | 44.70456 | 3.16373 | 26751 ft | 379 kts | 184° |
| 2026-05-08 12:37 | 44.67860 | 3.16343 | 26317 ft | 377 kts | 184° |
| 2026-05-08 12:37 | 44.65208 | 3.16311 | 25850 ft | 375 kts | 184° |
| 2026-05-08 12:37 | 44.62602 | 3.16278 | 25399 ft | 374 kts | 184° |
| 2026-05-08 12:38 | 44.60038 | 3.16485 | 24928 ft | 376 kts | 173° |
| 2026-05-08 12:38 | 44.57477 | 3.17182 | 24444 ft | 375 kts | 171° |
| 2026-05-08 12:38 | 44.54916 | 3.17897 | 23964 ft | 375 kts | 171° |
| 2026-05-08 12:38 | 44.52356 | 3.18607 | 23459 ft | 375 kts | 171° |
| 2026-05-08 12:39 | 44.49799 | 3.19317 | 22928 ft | 374 kts | 170° |
| 2026-05-08 12:39 | 44.47254 | 3.20023 | 22451 ft | 372 kts | 171° |
| 2026-05-08 12:39 | 44.44724 | 3.20725 | 21981 ft | 370 kts | 171° |
| 2026-05-08 12:39 | 44.42207 | 3.21422 | 21502 ft | 368 kts | 171° |
| 2026-05-08 12:40 | 44.39702 | 3.22115 | 21053 ft | 366 kts | 171° |
| 2026-05-08 12:40 | 44.37207 | 3.22806 | 20588 ft | 364 kts | 171° |
| 2026-05-08 12:40 | 44.34738 | 3.23489 | 20135 ft | 362 kts | 171° |
| 2026-05-08 12:40 | 44.32285 | 3.24169 | 19752 ft | 358 kts | 170° |
| 2026-05-08 12:41 | 44.29852 | 3.24840 | 19302 ft | 356 kts | 170° |
| 2026-05-08 12:41 | 44.27443 | 3.25501 | 19024 ft | 349 kts | 170° |
| 2026-05-08 12:41 | 44.25072 | 3.26149 | 18652 ft | 346 kts | 171° |
| 2026-05-08 12:41 | 44.22729 | 3.26794 | 18291 ft | 342 kts | 169° |
| 2026-05-08 12:42 | 44.20404 | 3.27436 | 17742 ft | 337 kts | 170° |
| 2026-05-08 12:42 | 44.18130 | 3.28066 | 17096 ft | 329 kts | 170° |
| 2026-05-08 12:42 | 44.15930 | 3.28673 | 16698 ft | 315 kts | 170° |
| 2026-05-08 12:42 | 44.13822 | 3.29251 | 16328 ft | 303 kts | 170° |
| 2026-05-08 12:43 | 44.11792 | 3.29809 | 15972 ft | 292 kts | 169° |
| 2026-05-08 12:43 | 44.09840 | 3.30345 | 15629 ft | 282 kts | 169° |
| 2026-05-08 12:43 | 44.07917 | 3.30872 | 15291 ft | 281 kts | 169° |
| 2026-05-08 12:43 | 44.05996 | 3.31396 | 14956 ft | 281 kts | 169° |
| 2026-05-08 12:44 | 44.04073 | 3.31918 | 14618 ft | 281 kts | 169° |
| 2026-05-08 12:44 | 44.02150 | 3.32440 | 14278 ft | 282 kts | 169° |
| 2026-05-08 12:44 | 44.00220 | 3.32962 | 13927 ft | 283 kts | 169° |
| 2026-05-08 12:44 | 43.98292 | 3.33487 | 13562 ft | 284 kts | 169° |
| 2026-05-08 12:45 | 43.96352 | 3.34018 | 13201 ft | 283 kts | 169° |
| 2026-05-08 12:45 | 43.94419 | 3.34549 | 12824 ft | 283 kts | 169° |
| 2026-05-08 12:45 | 43.92487 | 3.35080 | 12491 ft | 283 kts | 169° |
| 2026-05-08 12:45 | 43.90564 | 3.35605 | 12130 ft | 282 kts | 169° |
| 2026-05-08 12:46 | 43.88643 | 3.36128 | 11762 ft | 281 kts | 168° |
| 2026-05-08 12:46 | 43.86753 | 3.36807 | 11387 ft | 280 kts | 158° |
| 2026-05-08 12:46 | 43.85071 | 3.38149 | 11033 ft | 280 kts | 142° |
| 2026-05-08 12:46 | 43.83749 | 3.40064 | 10677 ft | 280 kts | 126° |
| 2026-05-08 12:47 | 43.82744 | 3.42372 | 10296 ft | 280 kts | 121° |
| 2026-05-08 12:47 | 43.81760 | 3.44700 | 9901 ft | 279 kts | 122° |
| 2026-05-08 12:47 | 43.80784 | 3.46998 | 9495 ft | 268 kts | 122° |
| 2026-05-08 12:47 | 43.79874 | 3.49141 | 9123 ft | 257 kts | 122° |
| 2026-05-08 12:48 | 43.78975 | 3.51257 | 8769 ft | 246 kts | 121° |
| 2026-05-08 12:48 | 43.78122 | 3.53252 | 8446 ft | 243 kts | 122° |
| 2026-05-08 12:48 | 43.77259 | 3.55263 | 8077 ft | 243 kts | 123° |
| 2026-05-08 12:48 | 43.76396 | 3.57272 | 7733 ft | 243 kts | 123° |
| 2026-05-08 12:49 | 43.75529 | 3.59283 | 7373 ft | 244 kts | 122° |
| 2026-05-08 12:49 | 43.74662 | 3.61297 | 7004 ft | 245 kts | 122° |
| 2026-05-08 12:49 | 43.73789 | 3.63328 | 6671 ft | 244 kts | 123° |
| 2026-05-08 12:49 | 43.72925 | 3.65342 | 6348 ft | 243 kts | 122° |
| 2026-05-08 12:50 | 43.72071 | 3.67335 | 5921 ft | 240 kts | 123° |
| 2026-05-08 12:50 | 43.71223 | 3.69309 | 5498 ft | 236 kts | 123° |
| 2026-05-08 12:50 | 43.70397 | 3.71233 | 5090 ft | 230 kts | 123° |
| 2026-05-08 12:50 | 43.69589 | 3.73115 | 4701 ft | 225 kts | 123° |
| 2026-05-08 12:51 | 43.68803 | 3.74945 | 4336 ft | 218 kts | 122° |
| 2026-05-08 12:51 | 43.67263 | 3.78411 | 3641 ft | 206 kts | 127° |
| 2026-05-08 12:51 | 43.66472 | 3.80002 | 3331 ft | 192 kts | 127° |
| 2026-05-08 12:52 | 43.65731 | 3.81465 | 3004 ft | 183 kts | 128° |
| 2026-05-08 12:52 | 43.64278 | 3.84325 | 2392 ft | 179 kts | 126° |
| 2026-05-08 12:52 | 43.63583 | 3.85701 | 2096 ft | 170 kts | 127° |
| 2026-05-08 12:53 | 43.62920 | 3.87017 | 1838 ft | 165 kts | 129° |
| 2026-05-08 12:53 | 43.62278 | 3.88291 | 1573 ft | 160 kts | 129° |
| 2026-05-08 12:53 | 43.61672 | 3.89497 | 1322 ft | 147 kts | 128° |
| 2026-05-08 12:53 | 43.61111 | 3.90613 | 1092 ft | 136 kts | 128° |
| 2026-05-08 12:54 | 43.60561 | 3.91647 | 833 ft | 135 kts | 128° |
| 2026-05-08 12:54 | 43.60020 | 3.92683 | 664 ft | 133 kts | 126° |
| 2026-05-08 12:54 | 43.59508 | 3.93763 | 428 ft | 133 kts | 124° |
| 2026-05-08 12:54 | 43.58992 | 3.94831 | 205 ft | 134 kts | 127° |
| 2026-05-08 12:55 | 43.58454 | 3.95883 | 30 ft | 135 kts | 128° |
| 2026-05-08 12:55 | 43.57987 | 3.96819 | 18 ft | 103 kts | 126° |
| 2026-05-08 12:55 | 43.57642 | 3.97497 | 24 ft | 59 kts | 124° |
| 2026-05-08 12:55 | 43.57457 | 3.97860 | 21 ft | 38 kts | 123° |
| 2026-05-08 12:56 | 43.57346 | 3.98095 | 20 ft | 19 kts | 123° |
| 2026-05-08 12:56 | 43.57247 | 3.98164 | 20 ft | 16 kts | 191° |
| 2026-05-08 12:56 | 43.57177 | 3.98049 | 18 ft | 18 kts | 269° |
| 2026-05-08 12:56 | 43.57239 | 3.97898 | 18 ft | 18 kts | 304° |
| 2026-05-08 12:57 | 43.57310 | 3.97754 | 20 ft | 18 kts | 304° |
| 2026-05-08 12:57 | 43.57373 | 3.97632 | 22 ft | 14 kts | 305° |
| 2026-05-08 12:57 | 43.57429 | 3.97519 | 22 ft | 16 kts | 304° |
| 2026-05-08 12:57 | 43.57486 | 3.97408 | 24 ft | 12 kts | 305° |
| 2026-05-08 12:58 | 43.57531 | 3.97318 | 23 ft | 11 kts | 305° |
| 2026-05-08 12:58 | 43.57575 | 3.97231 | 22 ft | 11 kts | 304° |
| 2026-05-08 12:58 | 43.57618 | 3.97144 | 20 ft | 11 kts | 304° |
| 2026-05-08 12:58 | 43.57658 | 3.97063 | 20 ft | 10 kts | 304° |
| 2026-05-08 12:59 | 43.57704 | 3.96972 | 17 ft | 14 kts | 306° |
| 2026-05-08 12:59 | 43.57766 | 3.96847 | 15 ft | 16 kts | 304° |
| 2026-05-08 12:59 | 43.57825 | 3.96730 | 16 ft | 14 kts | 305° |
| 2026-05-08 12:59 | 43.57881 | 3.96621 | 15 ft | 13 kts | 305° |
| 2026-05-08 13:00 | 43.57927 | 3.96529 | 18 ft | 10 kts | 304° |
| 2026-05-08 13:00 | 43.57964 | 3.96456 | 19 ft | 10 kts | 304° |
| 2026-05-08 13:00 | 43.58013 | 3.96358 | 18 ft | 15 kts | 306° |
| 2026-05-08 13:00 | 43.58038 | 3.96266 | 19 ft | 8 kts | 244° |
| 2026-05-08 13:01 | 43.57992 | 3.96217 | 19 ft | 10 kts | 214° |
| 2026-05-08 13:01 | 43.57975 | 3.96118 | 19 ft | 12 kts | 295° |
| 2026-05-08 13:01 | 43.58019 | 3.96028 | 21 ft | 10 kts | 304° |
| 2026-05-08 13:01 | 43.58025 | 3.95980 | 19 ft | 4 kts | 232° |
| 2026-05-08 13:02 | 43.58009 | 3.95968 | 20 ft | 2 kts | 206° |
| 2026-05-08 13:02 | 43.58000 | 3.95962 | 20 ft | 0 kts | 206° |
| 2026-05-08 13:02 | 43.57993 | 3.95957 | 20 ft | 2 kts | 206° |
| 2026-05-08 13:02 | 43.57980 | 3.95948 | 23 ft | 3 kts | 207° |
| 2026-05-08 13:03 | 43.57973 | 3.95942 | 22 ft | 0 kts | 207° |
| 2026-05-08 13:34 | 43.57972 | 3.95942 | 21 ft | 0 kts | 207° |